Time;durP1;ratioP1;P1;durP2;ratioP2;P2;SDS_P1;SDS_P2;PMS_P1;PMS_P2;Temp;Humidity;BMP_temperature;BMP_pressure;BME280_temperature;BME280_humidity;BME280_pressure;Samples;Min_cycle;Max_cycle;Signal;HPM_P1;HPM_P2
2022/10/27 04:54:41;;;;;;;37.20;33.90;;;10.60;99.90;;;;;;6099866;23;20456;31
2022/10/27 04:57:09;;;;;;;38.23;34.97;;;10.60;99.90;;;;;;4912756;29;20469;-76
2022/10/27 04:59:36;;;;;;;38.27;35.17;;;10.60;99.90;;;;;;4915178;29;20852;-75
2022/10/27 05:02:03;;;;;;;40.83;37.23;;;10.60;99.90;;;;;;4915141;29;20454;-74
2022/10/27 05:04:30;;;;;;;41.83;37.57;;;10.60;99.90;;;;;;4914948;29;21033;-75
2022/10/27 05:06:56;;;;;;;41.97;38.03;;;10.70;99.90;;;;;;4914951;29;20454;-75
2022/10/27 05:09:23;;;;;;;43.77;38.87;;;10.60;99.90;;;;;;4915170;29;20481;-75
2022/10/27 05:11:50;;;;;;;44.33;39.83;;;10.60;99.90;;;;;;4915151;29;20461;-75
2022/10/27 05:14:18;;;;;;;40.70;36.90;;;10.60;99.90;;;;;;4915007;29;21003;-76
2022/10/27 05:16:44;;;;;;;41.77;37.80;;;10.50;99.90;;;;;;4914941;29;20450;-79
2022/10/27 05:19:11;;;;;;;38.77;35.27;;;10.50;99.90;;;;;;4914703;29;20648;-80
2022/10/27 05:21:38;;;;;;;37.60;34.03;;;10.50;99.90;;;;;;4912760;29;20470;-76
2022/10/27 05:24:05;;;;;;;38.93;35.50;;;10.50;99.90;;;;;;4914002;29;20450;-76
2022/10/27 05:26:32;;;;;;;38.30;35.00;;;10.50;99.90;;;;;;4914223;29;20802;-76
2022/10/27 05:28:59;;;;;;;40.20;36.50;;;10.40;99.90;;;;;;4914083;29;20882;-76
2022/10/27 05:31:27;;;;;;;43.70;39.47;;;10.40;99.90;;;;;;4912108;29;20465;-74
2022/10/27 05:33:53;;;;;;;40.60;36.53;;;10.40;99.90;;;;;;4913149;29;20462;-72
2022/10/27 05:36:20;;;;;;;39.67;36.27;;;10.40;99.90;;;;;;4914184;29;20450;-73
2022/10/27 05:38:47;;;;;;;39.00;35.53;;;10.40;99.90;;;;;;4913621;29;20462;-73
2022/10/27 05:41:14;;;;;;;35.67;32.63;;;10.40;99.90;;;;;;4911573;29;20477;-71
2022/10/27 05:43:41;;;;;;;38.90;35.37;;;10.30;99.90;;;;;;4913802;29;20458;-72
2022/10/27 05:46:08;;;;;;;40.53;36.87;;;10.30;99.90;;;;;;4909040;29;20875;-71
2022/10/27 05:48:36;;;;;;;43.20;39.07;;;10.30;99.90;;;;;;4913312;29;20806;-71
2022/10/27 05:51:02;;;;;;;42.17;38.43;;;10.30;99.90;;;;;;4912953;29;20497;-72
2022/10/27 05:53:29;;;;;;;41.07;37.10;;;10.30;99.90;;;;;;4918327;29;20562;-71
2022/10/27 05:55:56;;;;;;;42.70;39.00;;;10.30;99.90;;;;;;4932060;29;20485;-71
2022/10/27 05:58:23;;;;;;;43.40;39.40;;;10.30;99.90;;;;;;4932070;29;20452;-71
2022/10/27 06:00:49;;;;;;;41.50;38.00;;;10.30;99.90;;;;;;4932170;29;20454;-72
2022/10/27 06:03:20;;;;;;;44.00;40.37;;;10.30;99.90;;;;;;4932140;29;20825;-71
2022/10/27 06:05:48;;;;;;;42.10;38.20;;;10.30;99.90;;;;;;4931957;29;20952;-70
2022/10/27 06:08:15;;;;;;;39.67;36.17;;;10.20;99.90;;;;;;4931947;29;20450;-71
2022/10/27 06:10:42;;;;;;;41.00;36.90;;;10.20;99.90;;;;;;4931707;29;20496;-70
2022/10/27 06:13:12;;;;;;;40.37;36.60;;;10.20;99.90;;;;;;4932247;29;20453;-71
2022/10/27 06:15:39;;;;;;;38.77;35.50;;;10.20;99.90;;;;;;4932334;29;20457;-71
2022/10/27 06:18:06;;;;;;;39.33;35.93;;;10.20;99.90;;;;;;4931819;29;20460;-72
2022/10/27 06:20:32;;;;;;;37.63;34.53;;;10.20;99.90;;;;;;4931757;29;21012;-71
2022/10/27 06:23:00;;;;;;;37.97;34.60;;;10.20;99.90;;;;;;4931801;29;20460;-73
2022/10/27 06:25:27;;;;;;;39.33;35.87;;;10.20;99.90;;;;;;4931424;29;20449;-71
2022/10/27 06:27:54;;;;;;;39.77;36.10;;;10.10;99.90;;;;;;4931725;29;20460;-71
2022/10/27 06:30:21;;;;;;;40.20;36.60;;;10.20;99.90;;;;;;4931911;29;20503;-71
2022/10/27 06:32:47;;;;;;;39.50;36.17;;;10.20;99.90;;;;;;4931597;29;20472;-71
2022/10/27 06:35:14;;;;;;;39.63;36.00;;;10.10;99.90;;;;;;4931169;29;20476;-70
2022/10/27 06:37:43;;;;;;;41.77;37.87;;;10.20;99.90;;;;;;4931271;29;20952;-71
2022/10/27 06:40:13;;;;;;;42.40;38.07;;;10.20;99.90;;;;;;4931348;29;20453;-73
2022/10/27 06:42:39;;;;;;;41.13;37.50;;;10.30;99.90;;;;;;4931688;29;20457;-74
2022/10/27 06:45:07;;;;;;;41.47;37.83;;;10.40;99.90;;;;;;4931372;29;20472;-74
2022/10/27 06:47:34;;;;;;;43.87;40.10;;;10.50;99.90;;;;;;4929791;29;20523;-73
2022/10/27 06:50:01;;;;;;;44.13;40.23;;;10.70;99.90;;;;;;4931476;29;20508;-74
2022/10/27 06:52:28;;;;;;;43.17;39.37;;;10.90;99.90;;;;;;4931327;29;20464;-73
2022/10/27 06:54:54;;;;;;;41.77;38.27;;;11.00;99.90;;;;;;4931218;29;20496;-73
2022/10/27 06:57:22;;;;;;;41.33;37.63;;;11.00;99.90;;;;;;4931625;29;20458;-75
2022/10/27 06:59:50;;;;;;;40.43;36.67;;;11.10;99.90;;;;;;4931475;29;20449;-71
2022/10/27 07:02:16;;;;;;;38.57;35.30;;;11.20;99.90;;;;;;4929420;29;20453;-72
2022/10/27 07:04:43;;;;;;;37.33;34.07;;;11.30;99.90;;;;;;4931340;29;20838;-71
2022/10/27 07:07:10;;;;;;;35.50;32.53;;;11.40;99.90;;;;;;4929405;29;20469;-72
2022/10/27 07:09:36;;;;;;;35.10;32.33;;;11.50;99.90;;;;;;4931714;29;20936;-70
2022/10/27 07:12:03;;;;;;;32.10;29.53;;;11.70;99.90;;;;;;4935114;29;20445;-70
2022/10/27 07:14:31;;;;;;;29.40;27.40;;;11.80;99.90;;;;;;4935315;29;20456;-70
2022/10/27 07:16:58;;;;;;;29.13;26.90;;;11.90;99.90;;;;;;4935324;29;20445;-70
2022/10/27 07:19:25;;;;;;;26.60;25.00;;;11.90;99.90;;;;;;4935434;29;20484;-71
2022/10/27 07:21:52;;;;;;;25.37;23.97;;;12.00;99.90;;;;;;4933167;29;20967;-71
2022/10/27 07:24:19;;;;;;;24.80;23.27;;;12.10;99.90;;;;;;4933733;29;20445;-70
2022/10/27 07:26:45;;;;;;;24.97;23.10;;;12.30;99.90;;;;;;4934740;29;20465;-70
2022/10/27 07:29:12;;;;;;;24.30;22.53;;;12.40;99.90;;;;;;4935305;29;20474;-71
2022/10/27 07:31:43;;;;;;;22.13;20.30;;;12.70;99.90;;;;;;4935311;29;20892;-71
2022/10/27 07:34:10;;;;;;;22.43;21.03;;;12.70;99.90;;;;;;4935199;29;20460;-70
2022/10/27 07:36:37;;;;;;;22.70;21.30;;;12.90;99.90;;;;;;4935442;29;20880;-72
2022/10/27 07:39:04;;;;;;;20.90;19.63;;;13.00;99.90;;;;;;4935307;29;20460;-72
2022/10/27 07:41:31;;;;;;;19.80;18.10;;;13.20;99.90;;;;;;4933125;29;20694;-71
2022/10/27 07:43:57;;;;;;;20.10;18.80;;;13.30;99.90;;;;;;4935041;29;20472;-72
2022/10/27 07:46:24;;;;;;;21.13;19.80;;;13.50;99.90;;;;;;4935441;29;20485;-72
2022/10/27 07:48:52;;;;;;;22.17;20.70;;;13.60;99.90;;;;;;4935461;29;20449;-73
2022/10/27 07:51:19;;;;;;;22.60;20.60;;;14.10;99.90;;;;;;4934898;29;20682;-73
2022/10/27 07:53:46;;;;;;;22.07;20.47;;;14.50;99.90;;;;;;4932686;29;20544;-71
2022/10/27 07:56:12;;;;;;;20.93;19.40;;;14.50;99.90;;;;;;4934017;29;20489;-72
2022/10/27 07:58:39;;;;;;;20.83;19.10;;;14.60;99.90;;;;;;4934656;29;20456;-73
2022/10/27 08:01:06;;;;;;;20.57;18.90;;;14.70;99.90;;;;;;4934797;29;20842;-73
2022/10/27 08:03:33;;;;;;;21.23;19.73;;;14.90;99.90;;;;;;4935089;29;20473;-73
2022/10/27 08:06:02;;;;;;;20.20;18.73;;;15.10;99.90;;;;;;4935399;29;20516;-73
2022/10/27 08:08:30;;;;;;;19.40;18.20;;;15.10;99.90;;;;;;4932673;29;20461;-73
2022/10/27 08:10:57;;;;;;;21.77;20.00;;;15.20;99.90;;;;;;4934263;29;20492;-72
2022/10/27 08:13:24;;;;;;;19.27;18.00;;;15.60;99.90;;;;;;4934269;29;20582;-72
2022/10/27 08:15:51;;;;;;;20.17;18.90;;;15.80;99.90;;;;;;4934440;29;20476;-72
2022/10/27 08:18:17;;;;;;;19.93;18.43;;;15.90;99.90;;;;;;4934173;29;20817;-73
2022/10/27 08:20:46;;;;;;;19.67;18.23;;;15.90;99.90;;;;;;4933737;29;20459;-73
2022/10/27 08:23:16;;;;;;;19.80;18.40;;;15.90;99.90;;;;;;4933745;29;20450;-72
2022/10/27 08:25:43;;;;;;;19.97;18.33;;;15.80;99.90;;;;;;4933747;29;20461;-72
2022/10/27 08:28:11;;;;;;;19.20;18.00;;;15.90;99.90;;;;;;4933948;29;20548;-72
2022/10/27 08:30:38;;;;;;;19.60;18.17;;;16.60;99.90;;;;;;4934184;29;20484;-73
2022/10/27 08:33:06;;;;;;;19.60;18.10;;;17.60;99.90;;;;;;4934104;29;20457;-73
2022/10/27 08:35:34;;;;;;;21.10;19.53;;;17.70;99.90;;;;;;4933569;29;20543;-73
2022/10/27 08:38:03;;;;;;;19.63;18.37;;;17.50;99.90;;;;;;4933544;29;20732;-74
2022/10/27 08:40:42;;;;;;;20.60;19.20;;;17.50;99.90;;;;;;4933410;29;20450;-73
2022/10/27 08:43:30;;;;;;;21.57;19.90;;;17.60;99.90;;;;;;4933733;29;20457;-73
2022/10/27 08:46:02;;;;;;;20.00;18.67;;;17.90;99.90;;;;;;4933450;29;20456;-73
2022/10/27 08:48:32;;;;;;;20.47;19.10;;;18.10;99.90;;;;;;4933361;29;20461;-73
2022/10/27 08:51:00;;;;;;;19.57;18.17;;;18.20;99.90;;;;;;4933201;29;20516;-73
2022/10/27 08:53:30;;;;;;;19.90;18.80;;;18.20;99.90;;;;;;4933398;29;20470;-73
2022/10/27 08:56:04;;;;;;;19.27;17.60;;;18.40;99.90;;;;;;4933196;29;20485;-73
2022/10/27 08:58:36;;;;;;;20.77;19.07;;;18.50;99.90;;;;;;4933339;29;20702;-74
2022/10/27 09:01:12;;;;;;;20.17;18.63;;;18.70;99.90;;;;;;4933235;29;20449;-73
2022/10/27 09:03:58;;;;;;;19.80;18.50;;;18.90;99.90;;;;;;4933134;29;20457;-73
2022/10/27 09:06:29;;;;;;;20.33;18.93;;;19.10;99.90;;;;;;4933301;29;20454;-73
2022/10/27 09:09:03;;;;;;;22.20;19.90;;;19.10;99.90;;;;;;4933425;29;20449;-73
2022/10/27 09:11:41;;;;;;;19.50;17.80;;;19.60;99.90;;;;;;4933063;29;20520;-73
2022/10/27 09:14:22;;;;;;;21.20;19.40;;;20.30;99.90;;;;;;4933360;29;20457;-73
2022/10/27 09:16:54;;;;;;;21.63;19.93;;;20.90;99.90;;;;;;4933226;29;20464;-73
2022/10/27 09:19:24;;;;;;;23.20;21.47;;;21.00;99.90;;;;;;4933099;29;20472;-73
2022/10/27 09:21:51;;;;;;;20.80;19.40;;;21.00;99.90;;;;;;4933335;29;20449;-73
2022/10/27 09:24:21;;;;;;;22.50;20.40;;;21.10;99.90;;;;;;4932571;29;20457;-74
2022/10/27 09:26:49;;;;;;;21.90;20.10;;;21.60;99.90;;;;;;4932760;29;20461;-73
2022/10/27 09:29:20;;;;;;;22.60;20.60;;;22.00;99.90;;;;;;4932605;29;20802;-72
2022/10/27 09:31:51;;;;;;;22.57;20.33;;;22.10;99.90;;;;;;4932398;29;20556;-74
2022/10/27 09:34:21;;;;;;;22.23;19.63;;;22.40;99.90;;;;;;4931875;29;20454;-74
2022/10/27 09:36:48;;;;;;;21.10;19.63;;;22.40;99.90;;;;;;4932510;29;20468;-73
2022/10/27 09:39:15;;;;;;;21.60;19.83;;;22.80;99.90;;;;;;4932409;29;20449;-73
2022/10/27 09:41:42;;;;;;;19.90;18.50;;;22.80;99.90;;;;;;4932534;29;20457;-73
2022/10/27 09:44:19;;;;;;;20.20;18.90;;;23.00;99.90;;;;;;4932539;29;20460;-72
2022/10/27 09:46:50;;;;;;;20.27;18.80;;;23.70;99.90;;;;;;4932137;29;20457;-73
2022/10/27 09:49:18;;;;;;;19.43;17.57;;;23.40;99.90;;;;;;4932102;29;20465;-75
2022/10/27 09:51:51;;;;;;;18.37;17.37;;;23.20;99.90;;;;;;4932040;29;20899;-74
2022/10/27 09:54:32;;;;;;;19.77;18.37;;;22.70;99.90;;;;;;4932139;29;20482;-74
2022/10/27 09:57:07;;;;;;;18.70;17.23;;;22.60;99.90;;;;;;4932195;29;20551;-74
2022/10/27 09:59:36;;;;;;;18.93;17.47;;;22.80;99.90;;;;;;4932166;29;20441;-74
2022/10/27 10:02:04;;;;;;;18.90;17.50;;;23.00;99.90;;;;;;4931872;29;20627;-73
2022/10/27 10:04:34;;;;;;;18.67;17.53;;;23.00;99.90;;;;;;4931969;29;20872;-74
2022/10/27 10:07:02;;;;;;;18.00;16.80;;;22.90;99.90;;;;;;4931786;29;20671;-73
2022/10/27 10:09:31;;;;;;;18.03;16.83;;;22.80;99.90;;;;;;4931730;29;20488;-74
2022/10/27 10:12:19;;;;;;;18.70;17.40;;;23.20;99.90;;;;;;4931663;29;20489;-74
2022/10/27 10:14:48;;;;;;;19.00;17.40;;;23.00;99.90;;;;;;4931926;29;20457;-74
2022/10/27 10:17:26;;;;;;;17.77;16.67;;;23.30;99.90;;;;;;4931712;29;20829;-73
2022/10/27 10:19:54;;;;;;;19.57;17.97;;;23.40;99.90;;;;;;4931921;29;20461;-75
2022/10/27 10:22:28;;;;;;;19.73;18.33;;;23.70;99.90;;;;;;4932069;29;20450;-74
2022/10/27 10:24:56;;;;;;;19.00;17.90;;;23.60;99.90;;;;;;4931907;29;20450;-75
2022/10/27 10:27:31;;;;;;;18.97;17.50;;;23.70;99.90;;;;;;4931902;29;20457;-74
2022/10/27 10:30:02;;;;;;;18.87;17.50;;;24.30;99.10;;;;;;4931569;29;20461;-74
2022/10/27 10:32:32;;;;;;;18.07;17.07;;;24.50;98.30;;;;;;4931478;29;20489;-74
2022/10/27 10:34:59;;;;;;;19.47;17.57;;;24.30;98.60;;;;;;4931788;29;20475;-74
2022/10/27 10:37:32;;;;;;;19.90;18.20;;;24.90;98.00;;;;;;4931490;29;20920;-73
2022/10/27 10:40:26;;;;;;;17.80;16.60;;;24.60;98.00;;;;;;4931278;29;20739;-73
2022/10/27 10:43:02;;;;;;;16.13;15.33;;;24.80;97.60;;;;;;4931832;29;20457;-74
2022/10/27 10:45:34;;;;;;;19.27;17.63;;;25.30;96.10;;;;;;4931384;29;20720;-74
2022/10/27 10:48:06;;;;;;;19.30;18.03;;;24.70;96.80;;;;;;4931461;29;20959;-74
2022/10/27 10:50:44;;;;;;;17.53;16.53;;;24.90;97.20;;;;;;4931392;29;20457;-74
2022/10/27 10:53:24;;;;;;;17.23;16.23;;;24.80;96.60;;;;;;4931273;29;20504;-74
2022/10/27 10:55:53;;;;;;;17.07;15.97;;;25.20;96.30;;;;;;4931611;29;20489;-74
2022/10/27 10:58:22;;;;;;;19.73;17.90;;;25.20;96.10;;;;;;4931712;29;20457;-74
2022/10/27 11:00:56;;;;;;;17.87;16.47;;;25.60;95.40;;;;;;4931512;29;20534;-74
2022/10/27 11:03:25;;;;;;;17.20;16.00;;;25.30;95.70;;;;;;4931762;29;20457;-75
2022/10/27 11:05:58;;;;;;;17.63;16.43;;;25.20;95.80;;;;;;4931662;29;20468;-73
2022/10/27 11:08:32;;;;;;;16.17;15.17;;;24.70;96.60;;;;;;4931385;29;20803;-73
2022/10/27 11:10:59;;;;;;;17.13;16.13;;;24.90;96.30;;;;;;4931202;29;20873;-73
2022/10/27 11:13:33;;;;;;;17.37;16.27;;;25.00;95.90;;;;;;4931212;29;20931;-75
2022/10/27 11:16:05;;;;;;;17.27;15.80;;;25.10;95.80;;;;;;4931380;29;20790;-74
2022/10/27 11:18:40;;;;;;;17.20;15.50;;;24.90;96.00;;;;;;4931687;29;20469;-75
2022/10/27 11:21:13;;;;;;;17.10;15.67;;;25.00;96.10;;;;;;4931781;29;20453;-74
2022/10/27 11:23:44;;;;;;;16.90;15.50;;;24.90;95.90;;;;;;4931138;29;20456;-74
2022/10/27 11:26:13;;;;;;;17.27;16.37;;;24.60;96.50;;;;;;4931023;29;20453;-74
2022/10/27 11:28:48;;;;;;;17.33;16.10;;;24.80;96.30;;;;;;4931275;29;20480;-74
2022/10/27 11:31:22;;;;;;;16.77;15.30;;;25.30;95.50;;;;;;4930981;29;21072;-74
2022/10/27 11:33:55;;;;;;;15.93;14.70;;;25.90;93.90;;;;;;4931215;29;20451;-73
2022/10/27 11:36:26;;;;;;;16.40;15.30;;;26.00;93.70;;;;;;4931342;29;20461;-76
2022/10/27 11:39:02;;;;;;;16.63;15.53;;;26.60;93.10;;;;;;4931326;29;20460;-75
2022/10/27 11:41:35;;;;;;;16.67;15.07;;;26.90;91.80;;;;;;4931029;29;20500;-75
2022/10/27 11:44:09;;;;;;;16.33;15.27;;;27.10;91.60;;;;;;4931100;29;20457;-75
2022/10/27 11:46:43;;;;;;;16.60;15.70;;;27.10;91.40;;;;;;4931292;29;20971;-75
2022/10/27 11:49:14;;;;;;;17.67;16.20;;;27.40;90.70;;;;;;4931290;29;20455;-75
2022/10/27 11:51:46;;;;;;;16.50;15.27;;;27.60;90.50;;;;;;4930819;29;20493;-75
2022/10/27 11:54:13;;;;;;;17.30;16.13;;;27.70;89.70;;;;;;4930746;29;20481;-75
2022/10/27 11:56:54;;;;;;;17.83;16.63;;;27.30;90.30;;;;;;4932248;29;20481;-75
2022/10/27 11:59:28;;;;;;;17.13;16.10;;;27.30;90.40;;;;;;4934806;29;20561;-74
2022/10/27 12:02:20;;;;;;;16.70;15.30;;;27.20;90.30;;;;;;4934591;29;20448;-74
2022/10/27 12:04:53;;;;;;;16.50;15.50;;;27.40;90.00;;;;;;4934441;29;20457;-75
2022/10/27 12:07:35;;;;;;;17.27;15.97;;;27.20;89.70;;;;;;4934575;29;20453;-74
2022/10/27 12:10:21;;;;;;;17.33;16.13;;;26.90;90.20;;;;;;4934157;29;20464;-75
2022/10/27 12:12:53;;;;;;;18.13;16.57;;;26.90;90.70;;;;;;4934214;29;20496;-75
2022/10/27 12:15:26;;;;;;;17.37;16.13;;;26.80;90.30;;;;;;4934306;29;20465;-75
2022/10/27 12:18:00;;;;;;;19.40;17.67;;;26.70;90.90;;;;;;4934386;29;20453;-74
2022/10/27 12:20:37;;;;;;;17.60;16.60;;;27.00;90.50;;;;;;4934004;29;20464;-74
2022/10/27 12:23:08;;;;;;;16.30;15.30;;;27.00;90.30;;;;;;4934118;29;20912;-74
2022/10/27 12:25:39;;;;;;;17.33;15.90;;;26.80;90.50;;;;;;4934013;29;20458;-74
2022/10/27 12:28:08;;;;;;;16.97;15.70;;;26.80;91.70;;;;;;4934353;29;20464;-74
2022/10/27 12:30:39;;;;;;;16.50;14.97;;;26.80;90.80;;;;;;4934082;29;20460;-74
2022/10/27 12:33:15;;;;;;;18.47;17.13;;;26.80;90.20;;;;;;4934146;29;20596;-74
2022/10/27 12:35:48;;;;;;;16.80;15.90;;;27.00;90.60;;;;;;4933500;29;20491;-74
2022/10/27 12:38:20;;;;;;;16.70;15.40;;;27.20;90.20;;;;;;4933646;29;20720;-73
2022/10/27 12:40:54;;;;;;;15.53;14.43;;;27.10;89.60;;;;;;4933625;29;20453;-74
2022/10/27 12:43:30;;;;;;;15.00;14.03;;;27.10;90.20;;;;;;4934021;29;20442;-74
2022/10/27 12:46:15;;;;;;;17.60;16.17;;;27.20;89.80;;;;;;4933441;29;20457;-74
2022/10/27 12:48:52;;;;;;;18.23;16.03;;;26.80;90.50;;;;;;4933524;29;20814;-75
2022/10/27 12:51:31;;;;;;;18.10;16.90;;;27.00;90.00;;;;;;4933475;29;20475;-75
2022/10/27 12:54:05;;;;;;;18.40;16.60;;;27.10;89.20;;;;;;4933397;29;20481;-75
2022/10/27 12:56:39;;;;;;;17.40;16.03;;;26.90;89.50;;;;;;4933194;29;20494;-75
2022/10/27 12:59:20;;;;;;;19.17;17.87;;;26.80;89.80;;;;;;4933636;29;20545;-75
2022/10/27 13:01:54;;;;;;;18.83;17.07;;;26.70;90.30;;;;;;4933150;29;20819;-74
2022/10/27 13:04:52;;;;;;;18.13;16.73;;;26.00;91.20;;;;;;4933213;29;20468;-75
2022/10/27 13:07:48;;;;;;;17.77;16.57;;;25.40;92.00;;;;;;4932630;29;20441;-74
2022/10/27 13:10:47;;;;;;;20.20;18.60;;;24.80;93.10;;;;;;4932786;29;20480;-75
2022/10/27 13:13:29;;;;;;;17.50;16.10;;;24.40;94.50;;;;;;4930292;29;20504;-72
2022/10/27 13:16:06;;;;;;;17.13;15.93;;;24.10;94.80;;;;;;4932699;29;20469;-73
2022/10/27 13:18:53;;;;;;;17.77;16.40;;;24.00;95.10;;;;;;4932718;29;20453;-73
2022/10/27 13:21:29;;;;;;;16.03;15.13;;;23.90;95.50;;;;;;4932985;29;20460;-73
2022/10/27 13:24:09;;;;;;;17.03;15.93;;;23.90;95.30;;;;;;4932498;29;20464;-73
2022/10/27 13:26:44;;;;;;;16.63;15.23;;;23.90;95.70;;;;;;4933169;29;20461;-75
2022/10/27 13:29:19;;;;;;;15.97;14.97;;;23.90;95.50;;;;;;4932932;29;20461;-75
2022/10/27 13:32:32;;;;;;;14.43;13.57;;;23.90;95.40;;;;;;4932500;29;21072;-74
2022/10/27 13:35:26;;;;;;;16.20;15.10;;;23.90;95.20;;;;;;4887526;29;20461;-74
2022/10/27 13:40:50;;;;;;;18.03;16.83;;;23.90;94.60;;;;;;5084368;27;20528;-73
2022/10/27 13:43:46;;;;;;;17.33;16.30;;;23.90;95.30;;;;;;5085951;28;20446;-75
2022/10/27 13:46:13;;;;;;;16.70;15.80;;;23.90;95.20;;;;;;5070896;28;20475;-74
2022/10/27 13:48:47;;;;;;;17.93;16.53;;;23.90;95.70;;;;;;5086194;28;20542;-74
2022/10/27 13:51:41;;;;;;;16.90;15.37;;;24.00;95.70;;;;;;5085990;28;20480;-74
2022/10/27 13:54:45;;;;;;;18.10;16.80;;;24.00;95.90;;;;;;5086026;28;20871;-74
2022/10/27 13:57:49;;;;;;;20.60;17.93;;;24.10;95.50;;;;;;5085855;28;20446;-74
2022/10/27 14:00:20;;;;;;;18.50;17.27;;;24.10;96.10;;;;;;5085732;28;20564;-74
2022/10/27 14:02:57;;;;;;;18.37;16.87;;;24.10;96.10;;;;;;5085532;28;20446;-74
2022/10/27 14:05:31;;;;;;;17.87;16.50;;;24.20;95.70;;;;;;5085638;28;20454;-75
2022/10/27 14:07:59;;;;;;;22.20;19.83;;;24.20;96.20;;;;;;5085315;28;20453;-75
2022/10/27 14:10:27;;;;;;;18.80;17.40;;;24.20;96.30;;;;;;5085467;28;20814;-73
2022/10/27 14:12:54;;;;;;;17.97;16.73;;;24.20;95.90;;;;;;5085601;28;20450;-73
2022/10/27 14:15:26;;;;;;;17.37;16.30;;;24.20;96.40;;;;;;5085327;28;20954;-73
2022/10/27 14:17:54;;;;;;;17.53;16.43;;;24.20;96.20;;;;;;5085750;28;20449;-76
2022/10/27 14:20:27;;;;;;;19.13;17.70;;;24.20;96.30;;;;;;5085651;28;20589;-73
2022/10/27 14:23:02;;;;;;;18.40;16.80;;;24.10;96.50;;;;;;5085591;28;20461;-75
2022/10/27 14:25:30;;;;;;;17.53;16.57;;;24.20;96.10;;;;;;5085280;28;20454;-73
2022/10/27 14:28:14;;;;;;;17.20;15.90;;;24.20;96.40;;;;;;5085252;28;20446;-75
2022/10/27 14:30:43;;;;;;;18.53;17.10;;;24.20;95.20;;;;;;5085361;28;20485;-73
2022/10/27 14:33:17;;;;;;;18.23;16.83;;;24.20;96.30;;;;;;5085270;28;20450;-75
2022/10/27 14:35:44;;;;;;;19.00;17.67;;;24.20;96.00;;;;;;5085039;28;20472;-73
2022/10/27 14:38:17;;;;;;;17.53;16.43;;;24.10;95.90;;;;;;5085003;28;20446;-74
2022/10/27 14:40:45;;;;;;;17.77;16.60;;;24.10;95.00;;;;;;5084340;28;20746;-74
2022/10/27 14:43:20;;;;;;;18.00;16.60;;;24.10;95.40;;;;;;5084815;28;20446;-74
2022/10/27 14:45:53;;;;;;;18.30;16.67;;;24.10;95.50;;;;;;5084879;28;20446;-75
2022/10/27 14:48:25;;;;;;;18.53;17.33;;;24.00;95.80;;;;;;5085404;28;20446;-75
2022/10/27 14:50:53;;;;;;;17.93;16.13;;;24.00;96.00;;;;;;5079062;28;20797;-75
2022/10/27 14:53:26;;;;;;;19.07;17.57;;;24.00;96.30;;;;;;5071726;28;20470;-75
2022/10/27 14:56:04;;;;;;;18.77;17.53;;;23.90;96.90;;;;;;5071988;28;20447;-74
2022/10/27 14:58:31;;;;;;;18.00;16.70;;;23.90;97.10;;;;;;5071186;28;20446;-74
2022/10/27 15:00:59;;;;;;;17.70;16.40;;;23.80;97.40;;;;;;5071128;28;20491;-74
2022/10/27 15:03:33;;;;;;;17.57;16.57;;;23.70;97.80;;;;;;5071170;28;20960;-74
2022/10/27 15:06:00;;;;;;;18.40;16.80;;;23.60;98.20;;;;;;5071015;28;20759;-74
2022/10/27 15:08:33;;;;;;;16.83;15.30;;;23.60;98.30;;;;;;5070912;28;20478;-74
2022/10/27 15:11:04;;;;;;;17.70;16.60;;;23.50;98.60;;;;;;5070997;28;20497;-74
2022/10/27 15:13:31;;;;;;;16.57;15.67;;;23.20;98.90;;;;;;5070947;28;20450;-74
2022/10/27 15:16:03;;;;;;;17.00;15.90;;;23.00;99.40;;;;;;5070783;28;20458;-74
2022/10/27 15:18:33;;;;;;;16.87;15.67;;;22.90;99.80;;;;;;5070725;28;20451;-74
2022/10/27 15:21:01;;;;;;;16.83;15.40;;;22.80;99.90;;;;;;5070659;28;20489;-74
2022/10/27 15:23:30;;;;;;;16.40;15.40;;;22.70;99.90;;;;;;5070530;28;20456;-75
2022/10/27 15:25:57;;;;;;;15.70;14.93;;;22.70;99.90;;;;;;5070662;28;20553;-75
2022/10/27 15:28:27;;;;;;;16.83;15.17;;;22.60;99.90;;;;;;5070918;28;20451;-74
2022/10/27 15:30:55;;;;;;;16.53;15.33;;;22.50;99.90;;;;;;5070825;28;20940;-74
2022/10/27 15:33:35;;;;;;;16.77;15.73;;;22.40;99.90;;;;;;5070674;28;20447;-73
2022/10/27 15:36:23;;;;;;;17.07;15.87;;;22.20;99.90;;;;;;5070312;28;20459;-74
2022/10/27 15:38:51;;;;;;;19.20;17.73;;;22.10;99.90;;;;;;5070021;28;20487;-81
2022/10/27 15:41:20;;;;;;;16.47;15.43;;;22.00;99.90;;;;;;5070201;28;20570;-75
2022/10/27 15:43:48;;;;;;;16.17;14.93;;;21.90;99.90;;;;;;5070115;28;20955;-72
2022/10/27 15:46:18;;;;;;;19.57;17.97;;;21.80;99.90;;;;;;5070146;28;20447;-74
2022/10/27 15:48:54;;;;;;;19.70;18.23;;;21.70;99.90;;;;;;5070125;28;20814;-77
2022/10/27 15:51:21;;;;;;;18.30;16.90;;;21.60;99.90;;;;;;5070285;28;20806;-72
2022/10/27 15:53:50;;;;;;;21.23;19.13;;;21.50;99.90;;;;;;5069899;28;20479;-73
2022/10/27 15:56:37;;;;;;;20.80;19.10;;;21.30;99.90;;;;;;5070042;28;20462;-72
2022/10/27 15:59:12;;;;;;;20.60;18.43;;;21.20;99.90;;;;;;5069268;28;20447;-72
2022/10/27 16:01:41;;;;;;;19.77;18.47;;;21.20;99.90;;;;;;5069855;28;20466;-72
2022/10/27 16:04:22;;;;;;;20.37;19.17;;;20.90;99.90;;;;;;5069600;28;20447;-72
2022/10/27 16:06:49;;;;;;;22.27;20.47;;;20.80;99.90;;;;;;5069941;28;20458;-72
2022/10/27 16:09:38;;;;;;;20.47;18.83;;;20.70;99.90;;;;;;5069384;28;20466;-72
2022/10/27 16:12:11;;;;;;;21.07;18.90;;;20.50;99.90;;;;;;5069734;28;20443;-73
2022/10/27 16:14:38;;;;;;;19.27;17.73;;;20.40;99.90;;;;;;5069493;28;20440;-72
2022/10/27 16:17:05;;;;;;;20.60;18.90;;;20.30;99.90;;;;;;5068634;28;20461;-74
2022/10/27 16:19:33;;;;;;;19.93;18.50;;;20.20;99.90;;;;;;5068678;28;20490;-74
2022/10/27 16:22:03;;;;;;;21.37;19.53;;;20.20;99.90;;;;;;5068945;28;20759;-74
2022/10/27 16:24:30;;;;;;;20.27;18.60;;;20.10;99.90;;;;;;5068641;28;20520;-72
2022/10/27 16:26:56;;;;;;;20.20;18.60;;;20.10;99.90;;;;;;5068554;28;20446;-73
2022/10/27 16:29:26;;;;;;;19.20;18.00;;;19.90;99.90;;;;;;5069385;28;20447;-73
2022/10/27 16:31:53;;;;;;;18.27;16.67;;;19.80;99.90;;;;;;5069812;28;20451;-74
2022/10/27 16:34:22;;;;;;;19.27;17.93;;;19.80;99.90;;;;;;5069407;28;20462;-73
2022/10/27 16:36:50;;;;;;;19.70;18.10;;;19.60;99.90;;;;;;5069113;28;20948;-72
2022/10/27 16:39:17;;;;;;;18.93;17.83;;;19.50;99.90;;;;;;5069055;28;20482;-72
2022/10/27 16:41:45;;;;;;;19.83;18.53;;;19.40;99.90;;;;;;5068364;28;20439;-73
2022/10/27 16:44:13;;;;;;;21.57;19.80;;;19.30;99.90;;;;;;5069040;28;20454;-72
2022/10/27 16:46:40;;;;;;;19.90;18.80;;;19.20;99.90;;;;;;5069049;28;20458;-72
2022/10/27 16:49:07;;;;;;;23.77;21.67;;;19.10;99.90;;;;;;5069321;28;20955;-73
2022/10/27 16:51:35;;;;;;;20.47;18.90;;;19.00;99.90;;;;;;5068690;28;20450;-73
2022/10/27 16:54:03;;;;;;;21.60;19.33;;;19.00;99.90;;;;;;5068313;28;20478;-73
2022/10/27 16:56:29;;;;;;;21.77;19.70;;;18.90;99.90;;;;;;5068399;28;20474;-74
2022/10/27 16:58:56;;;;;;;25.97;19.90;;;18.90;99.90;;;;;;5068326;28;20599;-72
2022/10/27 17:01:23;;;;;;;21.10;19.80;;;18.80;99.90;;;;;;5069126;28;20491;-74
2022/10/27 17:03:50;;;;;;;23.90;21.57;;;18.80;99.90;;;;;;5067240;28;20458;-74
2022/10/27 17:06:20;;;;;;;23.83;21.77;;;18.70;99.90;;;;;;5067024;28;20838;-74
2022/10/27 17:08:47;;;;;;;20.23;18.27;;;18.60;99.90;;;;;;5067240;28;20455;-74
2022/10/27 17:11:17;;;;;;;21.53;19.70;;;18.60;99.90;;;;;;5067035;28;20794;-74
2022/10/27 17:13:44;;;;;;;19.70;18.23;;;18.60;99.90;;;;;;5068838;28;20571;-74
2022/10/27 17:16:13;;;;;;;21.27;19.23;;;18.50;99.90;;;;;;5068680;28;20459;-74
2022/10/27 17:18:40;;;;;;;20.83;19.07;;;18.50;99.90;;;;;;5048545;28;20448;-73
2022/10/27 17:21:09;;;;;;;21.53;19.57;;;18.50;99.90;;;;;;5048500;28;20488;-72
2022/10/27 17:23:36;;;;;;;22.00;20.30;;;18.40;99.90;;;;;;5048406;28;20459;-72
2022/10/27 17:26:05;;;;;;;20.77;18.97;;;18.40;99.90;;;;;;5048043;28;20444;-74
2022/10/27 17:28:33;;;;;;;21.70;20.30;;;18.40;99.90;;;;;;5048205;28;20463;-74
2022/10/27 17:31:02;;;;;;;20.50;19.17;;;18.40;99.90;;;;;;5048374;28;20440;-74
2022/10/27 17:33:29;;;;;;;21.10;19.50;;;18.40;99.90;;;;;;5047084;28;20529;-73
2022/10/27 17:35:56;;;;;;;21.60;19.80;;;18.40;99.90;;;;;;5048427;28;20448;-74
2022/10/27 17:38:23;;;;;;;20.27;18.87;;;18.40;99.90;;;;;;5048284;28;20786;-74
2022/10/27 17:40:53;;;;;;;21.23;19.53;;;18.40;99.90;;;;;;5046432;28;20519;-74
2022/10/27 17:43:20;;;;;;;21.50;19.97;;;18.30;99.90;;;;;;5047624;28;20471;-74
2022/10/27 17:46:00;;;;;;;22.10;20.10;;;18.20;99.90;;;;;;5047471;28;20444;-74